createdAt,value
2023-05-17T00:00:40.546Z,0.00
2023-05-17T00:01:40.553Z,0.00
2023-05-17T00:02:40.572Z,0.00
2023-05-17T00:03:40.575Z,0.00
2023-05-17T00:04:40.547Z,0.00
2023-05-17T00:05:40.517Z,0.00
2023-05-17T00:06:40.500Z,0.00
2023-05-17T00:07:40.498Z,0.00
2023-05-17T00:08:40.586Z,0.00
2023-05-17T00:09:40.462Z,0.00
2023-05-17T00:10:40.622Z,0.00
2023-05-17T00:11:40.420Z,0.00
2023-05-17T00:12:40.400Z,0.00
2023-05-17T00:13:40.413Z,0.00
2023-05-17T00:14:40.380Z,0.00
2023-05-17T00:15:40.639Z,0.00
2023-05-17T00:16:40.641Z,0.00
2023-05-17T00:17:40.398Z,0.00
2023-05-17T00:18:40.425Z,0.00
2023-05-17T00:19:40.377Z,0.00
2023-05-17T00:20:40.317Z,0.00
2023-05-17T00:21:41.194Z,0.00
2023-05-17T00:22:40.580Z,0.00
2023-05-17T00:23:40.286Z,0.00
2023-05-17T00:24:40.290Z,0.00
2023-05-17T00:25:40.292Z,0.00
2023-05-17T00:26:40.232Z,0.00
2023-05-17T00:27:40.419Z,0.00
2023-05-17T00:28:40.223Z,0.00
2023-05-17T00:29:40.228Z,0.00
2023-05-17T00:30:40.236Z,0.00
2023-05-17T00:31:40.245Z,0.00
2023-05-17T00:32:40.271Z,0.00
2023-05-17T00:33:40.178Z,0.00
2023-05-17T00:34:40.191Z,0.00
2023-05-17T00:35:40.149Z,0.00
2023-05-17T00:36:40.144Z,0.00
2023-05-17T00:37:40.175Z,0.00
2023-05-17T00:38:40.102Z,0.00
2023-05-17T00:39:40.215Z,0.00
2023-05-17T00:40:40.192Z,0.00
2023-05-17T00:41:40.221Z,0.00
2023-05-17T00:42:40.166Z,0.00
2023-05-17T00:43:40.162Z,0.00
2023-05-17T00:44:40.218Z,0.00
2023-05-17T00:45:40.267Z,0.00
2023-05-17T00:46:40.200Z,0.00
2023-05-17T00:47:40.281Z,0.00
2023-05-17T00:48:40.441Z,0.00
2023-05-17T00:49:40.281Z,0.00
2023-05-17T00:50:40.065Z,0.00
2023-05-17T00:51:40.153Z,0.00
2023-05-17T00:52:40.190Z,0.00
2023-05-17T00:53:39.980Z,0.00
2023-05-17T00:54:40.048Z,0.00
2023-05-17T00:55:39.914Z,0.00
2023-05-17T00:56:39.968Z,0.00
2023-05-17T00:57:39.891Z,0.00
2023-05-17T00:58:39.977Z,0.00
2023-05-17T00:59:40.236Z,0.00
2023-05-17T01:00:40.006Z,0.00
2023-05-17T01:01:39.871Z,0.00
2023-05-17T01:02:39.943Z,0.00
2023-05-17T01:03:39.896Z,0.00
2023-05-17T01:04:39.865Z,0.00
2023-05-17T01:05:40.043Z,0.00
2023-05-17T01:06:39.827Z,0.00
2023-05-17T01:07:39.772Z,0.00
2023-05-17T01:08:39.827Z,0.00
2023-05-17T01:09:40.021Z,0.00
2023-05-17T01:10:40.048Z,0.00
2023-05-17T01:11:40.205Z,0.00
2023-05-17T01:12:39.734Z,0.00
2023-05-17T01:13:39.742Z,0.00
2023-05-17T01:14:39.725Z,0.00
2023-05-17T01:15:39.701Z,0.00
2023-05-17T01:16:39.773Z,0.00
2023-05-17T01:17:39.753Z,0.00
2023-05-17T01:18:40.033Z,0.00
2023-05-17T01:19:39.720Z,0.00
2023-05-17T01:20:39.744Z,0.00
2023-05-17T01:21:39.637Z,0.00
2023-05-17T01:22:39.656Z,0.00
2023-05-17T01:23:39.637Z,0.00
2023-05-17T01:24:39.604Z,0.00
2023-05-17T01:25:39.607Z,0.00
2023-05-17T01:26:39.580Z,0.00
2023-05-17T01:27:39.564Z,0.00
2023-05-17T01:28:39.586Z,0.00
2023-05-17T01:29:40.399Z,0.00
2023-05-17T01:30:39.548Z,0.00
2023-05-17T01:31:39.501Z,0.00
2023-05-17T01:32:39.586Z,0.00
2023-05-17T01:33:39.554Z,0.00
2023-05-17T01:34:39.478Z,0.00
2023-05-17T01:35:39.455Z,0.00
2023-05-17T01:36:39.495Z,0.00
2023-05-17T01:37:39.439Z,0.00
2023-05-17T01:38:39.603Z,0.00
2023-05-17T01:39:39.407Z,0.00
2023-05-17T01:40:39.465Z,0.00
2023-05-17T01:41:39.382Z,0.00
2023-05-17T01:42:39.437Z,0.00
2023-05-17T01:43:39.411Z,0.00
2023-05-17T01:44:39.404Z,0.00
2023-05-17T01:45:39.364Z,0.00
2023-05-17T01:46:39.430Z,0.00
2023-05-17T01:47:39.384Z,0.00
2023-05-17T01:48:39.367Z,0.00
2023-05-17T01:49:39.681Z,0.00
2023-05-17T01:50:39.893Z,0.00
2023-05-17T01:51:39.287Z,0.00
2023-05-17T01:52:39.275Z,0.00
2023-05-17T01:53:39.291Z,0.00
2023-05-17T01:54:39.279Z,0.00
2023-05-17T01:55:39.313Z,0.00
2023-05-17T01:56:39.240Z,0.00
2023-05-17T01:57:39.205Z,0.00
2023-05-17T01:58:39.236Z,0.00
2023-05-17T01:59:39.225Z,0.00
2023-05-17T02:00:39.194Z,0.00
2023-05-17T02:01:39.176Z,0.00
2023-05-17T02:02:39.181Z,0.00
2023-05-17T02:03:39.175Z,0.00
2023-05-17T02:04:39.375Z,0.00
2023-05-17T02:05:39.701Z,0.00
2023-05-17T02:06:39.436Z,0.00
2023-05-17T02:07:39.538Z,0.00
2023-05-17T02:08:39.173Z,0.00
2023-05-17T02:09:39.884Z,0.00
2023-05-17T02:10:39.197Z,0.00
2023-05-17T02:11:39.086Z,0.00
2023-05-17T02:12:39.089Z,0.00
2023-05-17T02:13:39.135Z,0.00
2023-05-17T02:14:39.047Z,0.00
2023-05-17T02:15:39.031Z,0.00
2023-05-17T02:16:39.083Z,0.00
2023-05-17T02:17:39.019Z,0.00
2023-05-17T02:18:39.108Z,0.00
2023-05-17T02:19:38.978Z,0.00
2023-05-17T02:20:39.372Z,0.00
2023-05-17T02:21:38.931Z,0.00
2023-05-17T02:22:38.972Z,0.00
2023-05-17T02:23:38.920Z,0.00
2023-05-17T02:24:38.928Z,0.00
2023-05-17T02:25:38.890Z,0.00
2023-05-17T02:26:38.938Z,0.00
2023-05-17T02:27:39.614Z,0.00
2023-05-17T02:28:38.883Z,0.00
2023-05-17T02:29:38.854Z,0.00
2023-05-17T02:30:38.909Z,0.00
2023-05-17T02:31:38.939Z,0.00
2023-05-17T02:32:39.056Z,0.00
2023-05-17T02:33:38.928Z,0.00
2023-05-17T02:34:38.884Z,0.00
2023-05-17T02:35:38.807Z,0.00
2023-05-17T02:36:38.804Z,0.00
2023-05-17T02:37:38.794Z,0.00
2023-05-17T02:38:38.885Z,0.00
2023-05-17T02:39:38.743Z,0.00
2023-05-17T02:40:38.780Z,0.00
2023-05-17T02:41:38.725Z,0.00
2023-05-17T02:42:38.746Z,0.00
2023-05-17T02:43:38.729Z,0.00
2023-05-17T02:44:38.702Z,0.00
2023-05-17T02:45:38.923Z,0.00
2023-05-17T02:46:38.773Z,0.00
2023-05-17T02:47:38.769Z,0.00
2023-05-17T02:48:38.687Z,0.00
2023-05-17T02:49:38.682Z,0.00
2023-05-17T02:50:38.651Z,0.00
2023-05-17T02:51:38.778Z,0.00
2023-05-17T02:52:38.772Z,0.00
2023-05-17T02:53:38.591Z,0.00
2023-05-17T02:54:38.883Z,0.00
2023-05-17T02:55:38.612Z,0.00
2023-05-17T02:56:38.572Z,0.00
2023-05-17T02:57:38.547Z,0.00
2023-05-17T02:58:38.553Z,0.00
2023-05-17T02:59:38.533Z,0.00
2023-05-17T03:00:38.743Z,0.00
2023-05-17T03:01:38.499Z,0.00
2023-05-17T03:02:38.552Z,0.00
2023-05-17T03:03:38.837Z,0.00
2023-05-17T03:04:38.547Z,0.00
2023-05-17T03:05:38.473Z,0.00
2023-05-17T03:06:38.480Z,0.00
2023-05-17T03:07:38.434Z,0.00
2023-05-17T03:08:38.445Z,0.00
2023-05-17T03:09:38.445Z,4.00
2023-05-17T03:10:38.475Z,0.00
2023-05-17T03:11:38.675Z,4.00
2023-05-17T03:12:38.704Z,4.00
2023-05-17T03:13:38.406Z,4.00
2023-05-17T03:14:38.376Z,8.00
2023-05-17T03:15:38.349Z,8.00
2023-05-17T03:16:38.945Z,8.00
2023-05-17T03:17:38.704Z,12.00
2023-05-17T03:18:38.470Z,12.00
2023-05-17T03:19:38.398Z,12.00
2023-05-17T03:20:38.321Z,12.00
2023-05-17T03:21:39.134Z,16.00
2023-05-17T03:22:38.666Z,20.00
2023-05-17T03:23:38.331Z,20.00
2023-05-17T03:24:38.300Z,24.00
2023-05-17T03:25:38.235Z,28.00
2023-05-17T03:26:38.260Z,32.00
2023-05-17T03:27:38.310Z,32.00
2023-05-17T03:28:38.235Z,36.00
2023-05-17T03:29:38.231Z,40.00
2023-05-17T03:30:38.283Z,44.00
2023-05-17T03:31:38.194Z,48.00
2023-05-17T03:32:38.310Z,56.00
2023-05-17T03:33:38.256Z,60.00
2023-05-17T03:34:38.149Z,68.00
2023-05-17T03:35:38.201Z,72.00
2023-05-17T03:36:38.155Z,80.00
2023-05-17T03:37:38.099Z,84.00
2023-05-17T03:38:38.341Z,92.00
2023-05-17T03:39:38.118Z,100.00
2023-05-17T03:40:38.089Z,100.00
2023-05-17T03:41:38.056Z,92.00
2023-05-17T03:42:38.078Z,92.00
2023-05-17T03:43:38.046Z,92.00
2023-05-17T03:44:38.195Z,100.00
2023-05-17T03:45:37.995Z,96.00
2023-05-17T03:46:38.054Z,88.00
2023-05-17T03:47:38.138Z,84.00
2023-05-17T03:48:38.041Z,72.00
2023-05-17T03:49:38.219Z,68.00
2023-05-17T03:50:37.973Z,72.00
2023-05-17T03:51:37.960Z,80.00
2023-05-17T03:52:38.269Z,104.00
2023-05-17T03:53:38.250Z,112.00
2023-05-17T03:54:37.941Z,124.00
2023-05-17T03:55:38.278Z,124.00
2023-05-17T03:56:37.904Z,132.00
2023-05-17T03:57:37.859Z,156.00
2023-05-17T03:58:37.876Z,192.00
2023-05-17T03:59:37.870Z,200.00
2023-05-17T04:00:37.906Z,192.00
2023-05-17T04:01:37.892Z,180.00
2023-05-17T04:02:37.912Z,212.00
2023-05-17T04:03:37.920Z,232.00
2023-05-17T04:04:37.859Z,328.00
2023-05-17T04:05:37.772Z,360.00
2023-05-17T04:06:37.840Z,388.00
2023-05-17T04:07:38.064Z,400.00
2023-05-17T04:08:37.828Z,408.00
2023-05-17T04:09:37.762Z,448.00
2023-05-17T04:10:37.867Z,472.00
2023-05-17T04:11:37.709Z,492.00
2023-05-17T04:12:38.202Z,484.00
2023-05-17T04:13:38.009Z,500.00
2023-05-17T04:14:37.967Z,552.00
2023-05-17T04:15:37.998Z,576.00
2023-05-17T04:16:37.685Z,568.00
2023-05-17T04:17:37.775Z,592.00
2023-05-17T04:18:37.799Z,612.00
2023-05-17T04:19:37.667Z,672.00
2023-05-17T04:20:37.633Z,664.00
2023-05-17T04:21:37.622Z,688.00
2023-05-17T04:22:37.632Z,716.00
2023-05-17T04:23:37.581Z,764.00
2023-05-17T04:24:37.596Z,820.00
2023-05-17T04:25:37.558Z,876.00
2023-05-17T04:26:37.587Z,888.00
2023-05-17T04:27:37.533Z,868.00
2023-05-17T04:28:37.560Z,868.00
2023-05-17T04:29:37.608Z,872.00
2023-05-17T04:30:37.510Z,936.00
2023-05-17T04:31:37.484Z,944.00
2023-05-17T04:32:37.995Z,880.00
2023-05-17T04:33:38.136Z,912.00
2023-05-17T04:34:37.751Z,932.00
2023-05-17T04:35:37.442Z,972.00
2023-05-17T04:36:37.454Z,1036.00
2023-05-17T04:37:37.434Z,1076.00
2023-05-17T04:38:37.428Z,1056.00
2023-05-17T04:39:37.551Z,1080.00
2023-05-17T04:40:37.466Z,1120.00
2023-05-17T04:41:37.464Z,1192.00
2023-05-17T04:42:37.497Z,1260.00
2023-05-17T04:43:37.606Z,1232.00
2023-05-17T04:44:37.366Z,1240.00
2023-05-17T04:45:37.386Z,1260.00
2023-05-17T04:46:37.644Z,1332.00
2023-05-17T04:47:37.767Z,1324.00
2023-05-17T04:48:37.755Z,1204.00
2023-05-17T04:49:37.677Z,1152.00
2023-05-17T04:50:37.432Z,1192.00
2023-05-17T04:51:37.687Z,1284.00
2023-05-17T04:52:37.656Z,1432.00
2023-05-17T04:53:37.337Z,1380.00
2023-05-17T04:54:37.371Z,1308.00
2023-05-17T04:55:37.369Z,1328.00
2023-05-17T04:56:37.688Z,1364.00
2023-05-17T04:57:37.300Z,1440.00
2023-05-17T04:58:37.194Z,1540.00
2023-05-17T04:59:37.203Z,1504.00
2023-05-17T05:00:37.150Z,1360.00
2023-05-17T05:01:37.224Z,1236.00
2023-05-17T05:02:37.154Z,1268.00
2023-05-17T05:03:37.204Z,1508.00
2023-05-17T05:04:37.362Z,1564.00
2023-05-17T05:05:37.146Z,1716.00
2023-05-17T05:06:37.085Z,1956.00
2023-05-17T05:07:37.650Z,2028.00
2023-05-17T05:08:37.089Z,2052.00
2023-05-17T05:09:37.055Z,2136.00
2023-05-17T05:10:37.129Z,2080.00
2023-05-17T05:11:37.047Z,2220.00
2023-05-17T05:12:37.180Z,2412.00
2023-05-17T05:13:37.208Z,2300.00
2023-05-17T05:14:37.179Z,2460.00
2023-05-17T05:15:37.021Z,2072.00
2023-05-17T05:16:36.997Z,1628.00
2023-05-17T05:17:37.120Z,1724.00
2023-05-17T05:18:37.340Z,1892.00
2023-05-17T05:19:37.153Z,1916.00
2023-05-17T05:20:37.141Z,1876.00
2023-05-17T05:21:36.972Z,1836.00
2023-05-17T05:22:37.252Z,1660.00
2023-05-17T05:23:37.241Z,1576.00
2023-05-17T05:24:37.820Z,1684.00
2023-05-17T05:25:37.377Z,1724.00
2023-05-17T05:26:36.851Z,1396.00
2023-05-17T05:27:36.872Z,1468.00
2023-05-17T05:28:36.851Z,1564.00
2023-05-17T05:29:36.877Z,1832.00
2023-05-17T05:30:36.806Z,1956.00
2023-05-17T05:31:36.802Z,2180.00
2023-05-17T05:32:36.891Z,2424.00
2023-05-17T05:33:36.903Z,2280.00
2023-05-17T05:34:37.015Z,1900.00
2023-05-17T05:35:37.025Z,1732.00
2023-05-17T05:36:36.726Z,1656.00
2023-05-17T05:37:36.753Z,1696.00
2023-05-17T05:38:36.776Z,1468.00
2023-05-17T05:39:36.942Z,1208.00
2023-05-17T05:40:37.044Z,1080.00
2023-05-17T05:41:36.723Z,1036.00
2023-05-17T05:42:36.667Z,1132.00
2023-05-17T05:43:36.665Z,1148.00
2023-05-17T05:44:36.674Z,1000.00
2023-05-17T05:45:36.901Z,1020.00
2023-05-17T05:46:36.646Z,972.00
2023-05-17T05:47:36.695Z,908.00
2023-05-17T05:48:36.662Z,940.00
2023-05-17T05:49:36.605Z,892.00
2023-05-17T05:50:36.591Z,864.00
2023-05-17T05:51:36.733Z,944.00
2023-05-17T05:52:36.604Z,1336.00
2023-05-17T05:53:36.574Z,1316.00
2023-05-17T05:54:36.676Z,1644.00
2023-05-17T05:55:36.662Z,1824.00
2023-05-17T05:56:36.750Z,1708.00
2023-05-17T05:57:36.519Z,1592.00
2023-05-17T05:58:36.522Z,1448.00
2023-05-17T05:59:36.514Z,1428.00
2023-05-17T06:00:36.480Z,1296.00
2023-05-17T06:01:36.486Z,1300.00
2023-05-17T06:02:36.767Z,1364.00
2023-05-17T06:03:36.461Z,1420.00
2023-05-17T06:04:44.491Z,1648.00
2023-05-17T06:05:38.254Z,1992.00
2023-05-17T06:06:36.746Z,2488.00
2023-05-17T06:07:36.623Z,2508.00
2023-05-17T06:08:36.663Z,2184.00
2023-05-17T06:09:36.387Z,2176.00
2023-05-17T06:10:36.384Z,1336.00
2023-05-17T06:11:36.376Z,888.00
2023-05-17T06:12:36.352Z,884.00
2023-05-17T06:13:36.700Z,964.00
2023-05-17T06:14:36.305Z,1004.00
2023-05-17T06:15:37.003Z,908.00
2023-05-17T06:16:36.379Z,812.00
2023-05-17T06:17:36.361Z,820.00
2023-05-17T06:18:37.190Z,944.00
2023-05-17T06:19:36.872Z,1020.00
2023-05-17T06:20:36.481Z,1288.00
2023-05-17T06:21:36.253Z,1544.00
2023-05-17T06:22:36.224Z,1604.00
2023-05-17T06:23:36.268Z,1960.00
2023-05-17T06:24:36.334Z,3096.00
2023-05-17T06:25:36.221Z,3260.00
2023-05-17T06:26:36.256Z,3944.00
2023-05-17T06:27:36.459Z,4908.00
2023-05-17T06:28:37.053Z,4372.00
2023-05-17T06:29:37.558Z,3776.00
2023-05-17T06:30:36.583Z,3396.00
2023-05-17T06:31:36.197Z,3796.00
2023-05-17T06:32:36.227Z,3156.00
2023-05-17T06:33:36.188Z,3236.00
2023-05-17T06:34:36.084Z,3364.00
2023-05-17T06:35:51.711Z,2880.00
2023-05-17T06:36:38.713Z,2708.00
2023-05-17T06:37:36.328Z,3624.00
2023-05-17T06:38:36.042Z,3808.00
2023-05-17T06:39:36.070Z,4124.00
2023-05-17T06:40:36.333Z,4240.00
2023-05-17T06:41:36.019Z,4472.00
2023-05-17T06:42:35.977Z,4424.00
2023-05-17T06:43:37.794Z,4508.00
2023-05-17T06:44:36.279Z,4388.00
2023-05-17T06:45:36.007Z,3900.00
2023-05-17T06:46:36.704Z,3448.00
2023-05-17T06:47:36.056Z,4124.00
2023-05-17T06:48:35.989Z,4528.00
2023-05-17T06:49:35.932Z,3792.00
2023-05-17T06:50:35.889Z,4028.00
2023-05-17T06:51:36.027Z,4384.00
2023-05-17T06:52:35.899Z,4488.00
2023-05-17T06:53:35.901Z,4432.00
2023-05-17T06:54:35.838Z,4176.00
2023-05-17T06:55:36.360Z,4048.00
2023-05-17T06:56:36.346Z,3932.00
2023-05-17T06:57:35.859Z,4172.00
2023-05-17T06:58:35.836Z,4444.00
2023-05-17T06:59:35.846Z,4288.00
2023-05-17T07:00:35.762Z,3964.00
2023-05-17T07:01:35.785Z,3748.00
2023-05-17T07:02:36.176Z,3376.00
2023-05-17T07:03:35.923Z,3288.00
2023-05-17T07:04:35.758Z,3000.00
2023-05-17T07:05:36.252Z,2868.00
2023-05-17T07:06:36.212Z,3004.00
2023-05-17T07:07:35.732Z,3620.00
2023-05-17T07:08:35.713Z,3464.00
2023-05-17T07:09:35.768Z,4048.00
2023-05-17T07:10:35.672Z,4084.00
2023-05-17T07:11:35.686Z,4456.00
2023-05-17T07:12:39.786Z,4276.00
2023-05-17T07:13:35.988Z,4328.00
2023-05-17T07:14:35.614Z,4920.00
2023-05-17T07:15:35.648Z,4936.00
2023-05-17T07:16:35.678Z,3740.00
2023-05-17T07:17:35.747Z,3192.00
2023-05-17T07:18:35.744Z,2892.00
2023-05-17T07:19:35.885Z,3088.00
2023-05-17T07:20:36.515Z,3312.00
2023-05-17T07:21:35.576Z,4216.00
2023-05-17T07:22:35.563Z,3448.00
2023-05-17T07:23:35.579Z,3292.00
2023-05-17T07:24:36.071Z,3960.00
2023-05-17T07:25:35.519Z,4700.00
2023-05-17T07:26:35.589Z,4792.00
2023-05-17T07:27:35.508Z,4124.00
2023-05-17T07:28:35.532Z,3808.00
2023-05-17T07:29:35.468Z,4028.00
2023-05-17T07:30:35.744Z,4500.00
2023-05-17T07:31:35.524Z,4052.00
2023-05-17T07:32:35.487Z,4232.00
2023-05-17T07:33:35.452Z,4308.00
2023-05-17T07:34:35.600Z,4132.00
2023-05-17T07:35:35.535Z,3888.00
2023-05-17T07:36:35.491Z,4516.00
2023-05-17T07:37:35.625Z,4940.00
2023-05-17T07:38:35.620Z,5080.00
2023-05-17T07:39:35.385Z,4672.00
2023-05-17T07:40:35.321Z,4280.00
2023-05-17T07:41:35.667Z,4064.00
2023-05-17T07:42:35.307Z,4172.00
2023-05-17T07:43:35.314Z,4236.00
2023-05-17T07:44:35.298Z,4012.00
2023-05-17T07:45:35.290Z,4172.00
2023-05-17T07:46:35.400Z,4972.00
2023-05-17T07:47:35.375Z,6032.00
2023-05-17T07:48:35.536Z,5916.00
2023-05-17T07:49:35.535Z,5832.00
2023-05-17T07:50:35.255Z,4916.00
2023-05-17T07:51:35.508Z,5096.00
2023-05-17T07:52:35.309Z,5188.00
2023-05-17T07:53:35.239Z,5500.00
2023-05-17T07:54:35.156Z,6048.00
2023-05-17T07:55:35.178Z,5720.00
2023-05-17T07:56:35.152Z,5192.00
2023-05-17T07:57:35.574Z,5152.00
2023-05-17T07:58:35.424Z,5252.00
2023-05-17T07:59:35.384Z,5116.00
2023-05-17T08:00:35.680Z,4708.00
2023-05-17T08:01:35.140Z,4588.00
2023-05-17T08:02:35.121Z,5092.00
2023-05-17T08:03:35.705Z,5184.00
2023-05-17T08:04:35.129Z,4872.00
2023-05-17T08:05:35.967Z,5224.00
2023-05-17T08:06:35.881Z,4740.00
2023-05-17T08:07:35.943Z,4524.00
2023-05-17T08:08:35.021Z,4916.00
2023-05-17T08:09:35.073Z,4980.00
2023-05-17T08:10:35.162Z,4888.00
2023-05-17T08:11:35.385Z,4656.00
2023-05-17T08:12:35.152Z,4536.00
2023-05-17T08:13:35.283Z,4044.00
2023-05-17T08:14:35.267Z,3616.00
2023-05-17T08:15:34.966Z,3536.00
2023-05-17T08:16:35.368Z,3580.00
2023-05-17T08:17:35.263Z,3728.00
2023-05-17T08:18:35.610Z,4080.00
2023-05-17T08:19:35.458Z,4468.00
2023-05-17T08:20:35.506Z,4724.00
2023-05-17T08:21:35.622Z,5236.00
2023-05-17T08:22:35.660Z,5748.00
2023-05-17T08:23:35.241Z,5744.00
2023-05-17T08:24:34.912Z,5468.00
2023-05-17T08:25:34.950Z,5344.00
2023-05-17T08:26:34.822Z,5204.00
2023-05-17T08:27:34.911Z,5356.00
2023-05-17T08:28:34.947Z,5544.00
2023-05-17T08:29:36.052Z,6256.00
2023-05-17T08:30:34.782Z,6412.00
2023-05-17T08:31:35.064Z,6728.00
2023-05-17T08:32:35.193Z,6720.00
2023-05-17T08:33:35.315Z,6228.00
2023-05-17T08:34:35.174Z,6388.00
2023-05-17T08:35:35.197Z,6420.00
2023-05-17T08:36:34.733Z,6684.00
2023-05-17T08:37:35.326Z,6404.00
2023-05-17T08:38:35.345Z,6364.00
2023-05-17T08:39:35.241Z,6008.00
2023-05-17T08:40:35.298Z,6228.00
2023-05-17T08:41:35.621Z,5676.00
2023-05-17T08:42:34.830Z,5284.00
2023-05-17T08:43:35.564Z,5212.00
2023-05-17T08:44:34.671Z,5336.00
2023-05-17T08:45:34.648Z,5384.00
2023-05-17T08:46:34.577Z,4828.00
2023-05-17T08:47:34.839Z,4260.00
2023-05-17T08:48:34.572Z,4100.00
2023-05-17T08:49:34.886Z,4684.00
2023-05-17T08:50:34.601Z,5264.00
2023-05-17T08:51:34.592Z,5776.00
2023-05-17T08:52:34.646Z,5772.00
2023-05-17T08:53:34.553Z,5916.00
2023-05-17T08:54:34.609Z,5608.00
2023-05-17T08:55:34.619Z,4976.00
2023-05-17T08:56:34.636Z,4292.00
2023-05-17T08:57:34.646Z,3168.00
2023-05-17T08:58:48.179Z,2612.00
2023-05-17T08:59:36.379Z,2400.00
2023-05-17T09:00:34.442Z,2596.00
2023-05-17T09:01:34.574Z,2744.00
2023-05-17T09:02:34.470Z,2828.00
2023-05-17T09:03:34.570Z,2824.00
2023-05-17T09:04:34.412Z,3764.00
2023-05-17T09:05:34.452Z,4248.00
2023-05-17T09:06:34.495Z,4760.00
2023-05-17T09:07:34.619Z,5944.00
2023-05-17T09:08:34.695Z,6908.00
2023-05-17T09:09:34.650Z,6684.00
2023-05-17T09:10:34.306Z,6276.00
2023-05-17T09:11:34.363Z,4928.00
2023-05-17T09:12:34.324Z,4136.00
2023-05-17T09:13:34.303Z,3952.00
2023-05-17T09:14:34.352Z,3536.00
2023-05-17T09:15:34.343Z,3144.00
2023-05-17T09:16:34.348Z,2872.00
2023-05-17T09:17:34.399Z,2916.00
2023-05-17T09:18:34.457Z,2972.00
2023-05-17T09:19:34.501Z,2920.00
2023-05-17T09:20:34.382Z,2932.00
2023-05-17T09:21:34.494Z,3188.00
2023-05-17T09:22:34.309Z,3500.00
2023-05-17T09:23:34.183Z,4200.00
2023-05-17T09:24:34.197Z,3996.00
2023-05-17T09:25:34.438Z,3224.00
2023-05-17T09:26:34.147Z,2952.00
2023-05-17T09:27:34.115Z,2688.00
2023-05-17T09:28:34.383Z,2940.00
2023-05-17T09:29:34.103Z,3124.00
2023-05-17T09:30:34.162Z,3156.00
2023-05-17T09:31:34.188Z,3600.00
2023-05-17T09:32:34.215Z,3596.00
2023-05-17T09:33:34.093Z,2800.00
2023-05-17T09:34:34.088Z,2724.00
2023-05-17T09:35:34.023Z,2724.00
2023-05-17T09:36:34.062Z,2916.00
2023-05-17T09:37:34.013Z,3028.00
2023-05-17T09:38:34.052Z,3276.00
2023-05-17T09:39:34.095Z,3532.00
2023-05-17T09:40:34.135Z,3532.00
2023-05-17T09:41:34.122Z,3388.00
2023-05-17T09:42:34.272Z,2992.00
2023-05-17T09:43:34.237Z,2812.00
2023-05-17T09:44:33.944Z,2676.00
2023-05-17T09:45:34.245Z,2036.00
2023-05-17T09:46:33.958Z,2296.00
2023-05-17T09:47:34.358Z,2368.00
2023-05-17T09:48:34.037Z,2428.00
2023-05-17T09:49:34.305Z,2496.00
2023-05-17T09:50:34.316Z,2568.00
2023-05-17T09:51:34.399Z,2736.00
2023-05-17T09:52:34.409Z,2868.00
2023-05-17T09:53:34.318Z,2896.00
2023-05-17T09:54:34.333Z,2892.00
2023-05-17T09:55:33.832Z,2700.00
2023-05-17T09:56:33.828Z,2420.00
2023-05-17T09:57:33.915Z,2548.00
2023-05-17T09:58:33.966Z,2648.00
2023-05-17T09:59:33.941Z,3332.00
2023-05-17T10:00:34.067Z,3844.00
2023-05-17T10:01:33.756Z,4284.00
2023-05-17T10:02:34.057Z,4500.00
2023-05-17T10:03:34.336Z,4264.00
2023-05-17T10:04:34.482Z,3716.00
2023-05-17T10:05:34.272Z,2840.00
2023-05-17T10:06:45.172Z,2856.00
2023-05-17T10:07:35.240Z,3020.00
2023-05-17T10:08:34.337Z,3352.00
2023-05-17T10:09:33.730Z,3204.00
2023-05-17T10:10:34.346Z,2848.00
2023-05-17T10:11:33.613Z,2120.00
2023-05-17T10:12:33.745Z,2396.00
2023-05-17T10:13:33.631Z,2368.00
2023-05-17T10:14:33.696Z,2360.00
2023-05-17T10:15:33.681Z,1948.00
2023-05-17T10:16:33.764Z,2416.00
2023-05-17T10:17:33.599Z,2420.00
2023-05-17T10:18:33.706Z,2480.00
2023-05-17T10:19:33.618Z,2532.00
2023-05-17T10:20:33.599Z,2536.00
2023-05-17T10:21:33.574Z,2496.00
2023-05-17T10:22:33.699Z,2604.00
2023-05-17T10:23:33.485Z,2744.00
2023-05-17T10:24:33.496Z,2896.00
2023-05-17T10:25:33.724Z,3144.00
2023-05-17T10:26:33.630Z,3308.00
2023-05-17T10:27:33.456Z,3208.00
2023-05-17T10:28:33.449Z,3016.00
2023-05-17T10:29:33.773Z,2972.00
2023-05-17T10:30:33.770Z,3096.00
2023-05-17T10:31:33.472Z,3244.00
2023-05-17T10:32:33.410Z,3248.00
2023-05-17T10:33:33.459Z,3376.00
2023-05-17T10:34:33.404Z,3012.00
2023-05-17T10:35:33.349Z,2628.00
2023-05-17T10:36:33.402Z,2428.00
2023-05-17T10:37:33.302Z,2576.00
2023-05-17T10:38:41.800Z,2772.00
2023-05-17T10:39:34.361Z,2980.00
2023-05-17T10:40:33.314Z,2784.00
2023-05-17T10:41:33.292Z,3000.00
2023-05-17T10:42:33.278Z,3432.00
2023-05-17T10:43:33.260Z,3468.00
2023-05-17T10:44:33.255Z,2852.00
2023-05-17T10:45:33.238Z,3068.00
2023-05-17T10:46:33.230Z,3696.00
2023-05-17T10:47:33.245Z,3936.00
2023-05-17T10:48:33.257Z,3452.00
2023-05-17T10:49:33.232Z,3612.00
2023-05-17T10:50:33.214Z,3824.00
2023-05-17T10:51:33.167Z,3176.00
2023-05-17T10:52:33.184Z,2780.00
2023-05-17T10:53:33.397Z,3328.00
2023-05-17T10:54:33.143Z,3632.00
2023-05-17T10:55:33.099Z,3624.00
2023-05-17T10:56:33.129Z,3732.00
2023-05-17T10:57:39.084Z,3832.00
2023-05-17T10:58:34.353Z,4160.00
2023-05-17T10:59:33.090Z,4148.00
2023-05-17T11:00:33.653Z,2888.00
2023-05-17T11:01:33.040Z,2756.00
2023-05-17T11:02:40.473Z,2004.00
2023-05-17T11:03:33.033Z,1796.00
2023-05-17T11:04:35.912Z,1936.00
2023-05-17T11:05:33.298Z,2268.00
2023-05-17T11:06:33.034Z,2204.00
2023-05-17T11:07:33.041Z,2284.00
2023-05-17T11:08:33.133Z,2272.00
2023-05-17T11:09:33.083Z,2252.00
2023-05-17T11:10:33.111Z,2232.00
2023-05-17T11:11:33.207Z,2216.00
2023-05-17T11:12:33.998Z,2224.00
2023-05-17T11:13:33.216Z,2228.00
2023-05-17T11:14:33.199Z,2236.00
2023-05-17T11:15:33.259Z,2248.00
2023-05-17T11:16:32.889Z,2276.00
2023-05-17T11:17:32.951Z,2324.00
2023-05-17T11:18:36.344Z,2376.00
2023-05-17T11:19:34.381Z,2472.00
2023-05-17T11:20:33.872Z,2612.00
2023-05-17T11:21:33.276Z,2364.00
2023-05-17T11:22:33.299Z,2388.00
2023-05-17T11:23:33.395Z,2476.00
2023-05-17T11:24:32.810Z,2652.00
2023-05-17T11:25:32.858Z,2868.00
2023-05-17T11:26:32.819Z,3016.00
2023-05-17T11:27:33.147Z,2900.00
2023-05-17T11:28:32.755Z,2892.00
2023-05-17T11:29:32.705Z,2720.00
2023-05-17T11:30:32.824Z,2396.00
2023-05-17T11:31:33.112Z,2340.00
2023-05-17T11:32:32.749Z,2364.00
2023-05-17T11:33:34.071Z,2384.00
2023-05-17T11:34:32.732Z,2324.00
2023-05-17T11:35:33.181Z,2304.00
2023-05-17T11:36:32.642Z,2320.00
2023-05-17T11:37:32.677Z,2360.00
2023-05-17T11:38:32.677Z,2380.00
2023-05-17T11:39:33.196Z,2412.00
2023-05-17T11:40:33.456Z,2392.00
2023-05-17T11:41:32.562Z,2352.00
2023-05-17T11:42:32.648Z,2300.00
2023-05-17T11:43:32.673Z,2264.00
2023-05-17T11:44:32.692Z,2268.00
2023-05-17T11:45:32.579Z,2348.00
2023-05-17T11:46:32.544Z,2636.00
2023-05-17T11:47:32.628Z,2292.00
2023-05-17T11:48:32.802Z,2260.00
2023-05-17T11:49:35.683Z,2280.00
2023-05-17T11:50:32.566Z,2316.00
2023-05-17T11:51:32.457Z,2452.00
2023-05-17T11:52:32.563Z,2692.00
2023-05-17T11:53:32.426Z,2900.00
2023-05-17T11:54:32.454Z,2856.00
2023-05-17T11:55:32.406Z,2688.00
2023-05-17T11:56:42.241Z,2512.00
2023-05-17T11:57:33.396Z,2404.00
2023-05-17T11:58:32.423Z,2296.00
2023-05-17T11:59:32.368Z,2240.00
2023-05-17T12:00:32.365Z,1892.00
2023-05-17T12:01:32.348Z,2292.00
2023-05-17T12:02:32.389Z,2280.00
2023-05-17T12:03:32.327Z,2292.00
2023-05-17T12:04:33.283Z,2312.00
2023-05-17T12:05:32.351Z,2336.00
2023-05-17T12:06:32.436Z,2340.00
2023-05-17T12:07:32.312Z,2348.00
2023-05-17T12:08:32.437Z,2352.00
2023-05-17T12:09:32.267Z,2376.00
2023-05-17T12:10:34.669Z,2392.00
2023-05-17T12:11:32.234Z,2384.00
2023-05-17T12:12:32.299Z,2348.00
2023-05-17T12:13:32.289Z,2300.00
2023-05-17T12:14:32.232Z,2292.00
2023-05-17T12:15:32.338Z,2308.00
2023-05-17T12:16:32.234Z,2312.00
2023-05-17T12:17:32.390Z,2312.00
2023-05-17T12:18:32.305Z,2320.00
2023-05-17T12:19:32.195Z,2384.00
2023-05-17T12:20:32.408Z,2476.00
2023-05-17T12:21:32.292Z,2580.00
2023-05-17T12:22:32.118Z,2552.00
2023-05-17T12:23:32.287Z,2504.00
2023-05-17T12:24:32.537Z,2468.00
2023-05-17T12:25:32.146Z,2436.00
2023-05-17T12:26:32.405Z,2520.00
2023-05-17T12:27:32.042Z,2664.00